| time (UTC) | temp C | wind direction | speed KPH | gust KPH | rain 1hr cm | rain 24hr cm | rain mn cm | humidity % | barometer mb |
| 20260906090026 | 20 | 51 | 3.2 | 9.7 | 0.00 | 0.00 | 0.00 | 39 | 1019.0 |
| 20260906084519 | 20 | 48 | 4.8 | 8.0 | 0.00 | 0.00 | 0.00 | 38 | 1018.8 |
| 20260906083018 | 20 | 49 | 4.8 | 9.7 | 0.00 | 0.00 | 0.00 | 38 | 1018.7 |
| 20260906081515 | 21 | 82 | 4.8 | 8.0 | 0.00 | 0.00 | 0.00 | 38 | 1018.6 |
| 20260906080016 | 21 | 43 | 4.8 | 8.0 | 0.00 | 0.00 | 0.00 | 38 | 1018.6 |
| 20260906074514 | 21 | 44 | 4.8 | 8.0 | 0.00 | 0.00 | 0.00 | 38 | 1018.6 |
| 20260906073020 | 21 | 43 | 3.2 | 6.4 | 0.00 | 0.00 | 0.00 | 38 | 1018.5 |
| 20260906071512 | 21 | 47 | 1.6 | 4.8 | 0.00 | 0.00 | 0.00 | 39 | 1018.7 |
| 20260906070011 | 21 | 44 | 3.2 | 6.4 | 0.00 | 0.00 | 0.00 | 40 | 1018.7 |
| 20260906064509 | 21 | 44 | 4.8 | 8.0 | 0.00 | 0.00 | 0.00 | 40 | 1018.7 |
| 20260906063007 | 21 | 51 | 3.2 | 8.0 | 0.00 | 0.00 | 0.00 | 40 | 1018.5 |
| 20260906061507 | 21 | 82 | 3.2 | 6.4 | 0.00 | 0.00 | 0.00 | 40 | 1018.6 |
| 20260906060006 | 21 | 69 | 3.2 | 8.0 | 0.00 | 0.00 | 0.00 | 40 | 1018.4 |
| 20260906054503 | 21 | 78 | 3.2 | 8.0 | 0.00 | 0.00 | 0.00 | 39 | 1018.4 |
| 20260906053002 | 22 | 57 | 4.8 | 9.7 | 0.00 | 0.00 | 0.00 | 40 | 1018.2 |
| 20260906051601 | 22 | 39 | 4.8 | 9.7 | 0.00 | 0.00 | 0.00 | 40 | 1018.2 |
| 20260906050121 | 22 | 45 | 4.8 | 9.7 | 0.00 | 0.00 | 0.00 | 39 | 1018.1 |
| 20260906044555 | 22 | 49 | 4.8 | 9.7 | 0.00 | 0.00 | 0.00 | 39 | 1018.2 |
| 20260906043057 | 22 | 49 | 4.8 | 8.0 | 0.00 | 0.00 | 0.00 | 39 | 1017.9 |
| 20260906041553 | 22 | 72 | 3.2 | 8.0 | 0.00 | 0.00 | 0.00 | 39 | 1018.0 |
| 20260906040053 | 22 | 61 | 3.2 | 9.7 | 0.00 | 0.00 | 0.00 | 39 | 1018.2 |
| 20260906034550 | 22 | 51 | 3.2 | 8.0 | 0.00 | 0.00 | 0.00 | 39 | 1017.8 |
| 20260906033100 | 22 | 69 | 1.6 | 8.0 | 0.00 | 0.00 | 0.00 | 39 | 1017.8 |
| 20260906031547 | 23 | 67 | 3.2 | 8.0 | 0.00 | 0.00 | 0.00 | 39 | 1017.6 |
| 20260906030047 | 23 | 61 | 4.8 | 9.7 | 0.00 | 0.00 | 0.00 | 38 | 1017.4 |
| 20260906024546 | 23 | 44 | 6.4 | 14.5 | 0.00 | 0.00 | 0.00 | 38 | 1017.4 |
| 20260906023045 | 23 | 61 | 8.0 | 12.9 | 0.00 | 0.00 | 0.00 | 38 | 1017.2 |
| 20260906021549 | 23 | 64 | 6.4 | 11.3 | 0.00 | 0.00 | 0.00 | 38 | 1017.1 |
| 20260906020049 | 23 | 34 | 4.8 | 14.5 | 0.00 | 0.00 | 0.00 | 40 | 1016.8 |
| 20260906014548 | 22 | 34 | 3.2 | 8.0 | 0.00 | 0.00 | 0.00 | 41 | 1016.6 |
| 20260906013038 | 22 | 52 | 3.2 | 8.0 | 0.00 | 0.00 | 0.00 | 42 | 1016.5 |
| 20260906011537 | 23 | 23 | 1.6 | 6.4 | 0.00 | 0.00 | 0.00 | 43 | 1016.5 |
| 20260906010036 | 23 | 18 | 3.2 | 8.0 | 0.00 | 0.00 | 0.00 | 44 | 1016.4 |
| 20260906004535 | 23 | 19 | 1.6 | 8.0 | 0.00 | 0.00 | 0.00 | 45 | 1016.0 |
| 20260906003035 | 24 | 13 | 6.4 | 14.5 | 0.00 | 0.00 | 0.00 | 45 | 1016.0 |
| 20260906001535 | 25 | 15 | 4.8 | 11.3 | 0.00 | 0.00 | 0.00 | 43 | 1015.8 |
| 20260906000040 | 25 | 23 | 4.8 | 12.9 | 0.00 | 0.00 | 0.00 | 41 | 1015.8 |
| 20260905234533 | 26 | 16 | 4.8 | 12.9 | 0.00 | 0.00 | 0.00 | 40 | 1015.7 |
| 20260905233038 | 26 | 12 | 9.7 | 16.1 | 0.00 | 0.00 | 0.00 | 38 | 1015.8 |
| 20260905231538 | 27 | 20 | 8.0 | 19.3 | 0.00 | 0.00 | 0.00 | 37 | 1015.7 |
| 20260905230030 | 27 | 12 | 11.3 | 19.3 | 0.00 | 0.00 | 0.00 | 35 | 1015.4 |
| 20260905224530 | 28 | 310 | 8.0 | 19.3 | 0.00 | 0.00 | 0.00 | 34 | 1015.1 |
| 20260905223029 | 29 | 355 | 11.3 | 20.9 | 0.00 | 0.00 | 0.00 | 32 | 1015.1 |
| 20260905221533 | 29 | 9 | 11.3 | 19.3 | 0.00 | 0.00 | 0.00 | 30 | 1014.9 |
| 20260905220026 | 30 | 23 | 14.5 | 20.9 | 0.00 | 0.00 | 0.00 | 29 | 1014.8 |
| 20260905214528 | 30 | 12 | 9.7 | 20.9 | 0.00 | 0.00 | 0.00 | 27 | 1014.7 |
| 20260905213024 | 30 | 28 | 8.0 | 22.5 | 0.00 | 0.00 | 0.00 | 26 | 1014.4 |
| 20260905211529 | 31 | 19 | 9.7 | 20.9 | 0.00 | 0.00 | 0.00 | 25 | 1014.3 |
| 20260905210019 | 31 | 5 | 11.3 | 19.3 | 0.00 | 0.00 | 0.00 | 27 | 1014.3 |
| 20260905204519 | 31 | 17 | 8.0 | 19.3 | 0.00 | 0.00 | 0.00 | 26 | 1014.4 |
| 20260905203018 | 31 | 31 | 9.7 | 16.1 | 0.00 | 0.00 | 0.00 | 26 | 1014.4 |
| 20260905201518 | 32 | 291 | 14.5 | 20.9 | 0.00 | 0.00 | 0.00 | 21 | 1014.6 |
| 20260905200016 | 31 | 328 | 6.4 | 16.1 | 0.00 | 0.00 | 0.00 | 20 | 1014.7 |
| 20260905194514 | 31 | 15 | 4.8 | 16.1 | 0.00 | 0.00 | 0.00 | 21 | 1014.8 |
| 20260905193011 | 31 | 23 | 3.2 | 16.1 | 0.00 | 0.00 | 0.00 | 21 | 1014.8 |
| 20260905191509 | 30 | 86 | 4.8 | 12.9 | 0.00 | 0.00 | 0.00 | 25 | 1015.0 |
| 20260905190008 | 30 | 43 | 12.9 | 19.3 | 0.00 | 0.00 | 0.00 | 25 | 1014.9 |
| 20260905184514 | 30 | 37 | 8.0 | 17.7 | 0.00 | 0.00 | 0.00 | 26 | 1015.3 |
| 20260905183007 | 30 | 19 | 3.2 | 12.9 | 0.00 | 0.00 | 0.00 | 26 | 1015.5 |
| 20260905181506 | 30 | 65 | 9.7 | 22.5 | 0.00 | 0.00 | 0.00 | 27 | 1015.5 |
| 20260905180006 | 30 | 47 | 4.8 | 14.5 | 0.00 | 0.00 | 0.00 | 26 | 1015.5 |
| 20260905174505 | 30 | 75 | 6.4 | 12.9 | 0.00 | 0.00 | 0.00 | 27 | 1015.4 |
| 20260905173001 | 30 | 51 | 1.6 | 9.7 | 0.00 | 0.00 | 0.00 | 27 | 1015.6 |
| 20260905171605 | 30 | 95 | 3.2 | 8.0 | 0.00 | 0.00 | 0.00 | 26 | 1015.7 |
| 20260905170056 | 28 | 215 | 1.6 | 9.7 | 0.00 | 0.00 | 0.00 | 31 | 1016.0 |
| 20260905164555 | 28 | 244 | 3.2 | 11.3 | 0.00 | 0.00 | 0.00 | 32 | 1016.1 |
| 20260905163056 | 28 | 249 | 4.8 | 14.5 | 0.00 | 0.00 | 0.00 | 31 | 1016.1 |
| 20260905161550 | 28 | 198 | 6.4 | 17.7 | 0.00 | 0.00 | 0.00 | 30 | 1016.2 |
| 20260905160047 | 27 | 179 | 3.2 | 8.0 | 0.00 | 0.00 | 0.00 | 30 | 1016.2 |
| 20260905154557 | 27 | 252 | 4.8 | 11.3 | 0.00 | 0.00 | 0.00 | 33 | 1016.4 |
| 20260905153043 | 27 | 91 | 1.6 | 12.9 | 0.00 | 0.00 | 0.00 | 33 | 1016.5 |
| 20260905151539 | 26 | 219 | 4.8 | 9.7 | 0.00 | 0.00 | 0.00 | 34 | 1016.2 |
| 20260905150039 | 26 | 156 | 6.4 | 14.5 | 0.00 | 0.00 | 0.00 | 35 | 1015.7 |
| 20260905144536 | 25 | 186 | 6.4 | 14.5 | 0.00 | 0.00 | 0.00 | 36 | 1015.8 |
| 20260905143038 | 25 | 194 | 6.4 | 12.9 | 0.00 | 0.00 | 0.00 | 38 | 1016.1 |
| 20260905141534 | 25 | 227 | 4.8 | 11.3 | 0.00 | 0.00 | 0.00 | 39 | 1016.0 |
| 20260905140035 | 23 | 211 | 4.8 | 11.3 | 0.00 | 0.00 | 0.00 | 40 | 1015.8 |
| 20260905134542 | 23 | 202 | 6.4 | 12.9 | 0.00 | 0.00 | 0.00 | 40 | 1015.8 |
| 20260905133030 | 23 | 203 | 8.0 | 14.5 | 0.00 | 0.00 | 0.00 | 42 | 1015.8 |
| 20260905131533 | 22 | 174 | 3.2 | 8.0 | 0.00 | 0.00 | 0.00 | 42 | 1015.8 |
| 20260905130028 | 22 | 194 | 3.2 | 16.1 | 0.00 | 0.00 | 0.00 | 43 | 1015.5 |
| 20260905124526 | 23 | 194 | 6.4 | 12.9 | 0.00 | 0.00 | 0.00 | 45 | 1015.5 |
| 20260905123023 | 23 | 141 | 6.4 | 12.9 | 0.00 | 0.00 | 0.00 | 46 | 1015.6 |
| 20260905121520 | 23 | 150 | 6.4 | 16.1 | 0.00 | 0.00 | 0.00 | 47 | 1015.3 |
| 20260905120024 | 23 | 140 | 8.0 | 14.5 | 0.00 | 0.00 | 0.00 | 47 | 1015.0 |
| 20260905114516 | 23 | 141 | 4.8 | 19.3 | 0.00 | 0.00 | 0.00 | 48 | 1015.2 |
| 20260905113014 | 23 | 165 | 3.2 | 14.5 | 0.00 | 0.00 | 0.00 | 48 | 1015.1 |
| 20260905111513 | 24 | 132 | 6.4 | 16.1 | 0.00 | 0.00 | 0.00 | 48 | 1014.8 |
| 20260905110013 | 24 | 152 | 4.8 | 11.3 | 0.00 | 0.00 | 0.00 | 48 | 1014.7 |
| 20260905104511 | 24 | 180 | 4.8 | 12.9 | 0.00 | 0.00 | 0.00 | 47 | 1014.7 |
| 20260905103010 | 24 | 131 | 1.6 | 6.4 | 0.00 | 0.00 | 0.00 | 47 | 1014.8 |
| 20260905101510 | 24 | 119 | 3.2 | 9.7 | 0.00 | 0.00 | 0.00 | 48 | 1014.7 |
| 20260905100009 | 24 | 111 | 1.6 | 3.2 | 0.00 | 0.00 | 0.00 | 48 | 1014.8 |
| 20260905094512 | 24 | 120 | 0.0 | 6.4 | 0.00 | 0.00 | 0.00 | 48 | 1014.9 |
| 20260905093008 | 23 | 124 | 0.0 | 4.8 | 0.00 | 0.00 | 0.00 | 46 | 1014.7 |
| 20260905091508 | 23 | 178 | 0.0 | 0.0 | 0.00 | 0.00 | 0.00 | 47 | 1014.6 |